createdAt,value
2022-08-28T00:03:51.608Z,19.40
2022-08-28T00:08:57.814Z,19.30
2022-08-28T00:14:08.025Z,19.30
2022-08-28T00:19:13.328Z,19.20
2022-08-28T00:24:20.221Z,19.20
2022-08-28T00:29:25.410Z,19.20
2022-08-28T00:34:33.256Z,19.10
2022-08-28T00:39:39.194Z,19.20
2022-08-28T00:44:46.893Z,19.10
2022-08-28T00:49:54.436Z,18.90
2022-08-28T00:55:09.284Z,18.90
2022-08-28T01:00:17.323Z,19.00
2022-08-28T01:05:23.848Z,19.20
2022-08-28T01:10:33.296Z,19.20
2022-08-28T01:15:41.576Z,19.00
2022-08-28T01:20:50.245Z,19.10
2022-08-28T01:25:56.158Z,19.00
2022-08-28T01:31:01.608Z,19.20
2022-08-28T01:36:07.650Z,19.20
2022-08-28T01:41:14.091Z,19.10
2022-08-28T01:46:19.370Z,19.10
2022-08-28T01:51:24.868Z,19.10
2022-08-28T01:56:30.456Z,19.10
2022-08-28T02:01:35.884Z,19.00
2022-08-28T02:06:42.249Z,18.90
2022-08-28T02:11:47.929Z,18.90
2022-08-28T02:16:53.566Z,18.80
2022-08-28T02:21:59.200Z,18.70
2022-08-28T02:27:07.343Z,18.70
2022-08-28T02:32:12.965Z,18.80
2022-08-28T02:37:18.996Z,18.70
2022-08-28T02:42:25.293Z,18.60
2022-08-28T02:47:30.679Z,18.80
2022-08-28T02:52:37.511Z,18.80
2022-08-28T02:57:43.173Z,18.90
2022-08-28T03:02:48.408Z,19.00
2022-08-28T03:07:55.826Z,19.00
2022-08-28T03:13:00.957Z,18.80
2022-08-28T03:18:07.946Z,18.80
2022-08-28T03:23:26.444Z,18.90
2022-08-28T03:28:35.770Z,18.80
2022-08-28T03:33:42.968Z,18.70
2022-08-28T03:38:50.022Z,18.60
2022-08-28T03:43:57.339Z,18.60
2022-08-28T03:49:05.220Z,18.60
2022-08-28T03:54:11.628Z,18.70
2022-08-28T03:59:17.359Z,18.70
2022-08-28T04:04:22.994Z,18.70
2022-08-28T04:09:28.662Z,18.60
2022-08-28T04:14:34.058Z,18.80
2022-08-28T04:19:40.122Z,18.70
2022-08-28T04:24:48.915Z,18.70
2022-08-28T04:29:54.160Z,18.50
2022-08-28T04:34:59.800Z,18.60
2022-08-28T04:40:10.216Z,18.70
2022-08-28T04:45:16.493Z,18.80
2022-08-28T04:50:21.086Z,18.90
2022-08-28T04:55:39.475Z,18.90
2022-08-28T05:00:34.178Z,19.00
2022-08-28T05:05:45.069Z,18.90
2022-08-28T05:10:51.067Z,18.90
2022-08-28T05:15:56.466Z,18.80
2022-08-28T05:21:01.870Z,19.00
2022-08-28T05:26:09.630Z,19.00
2022-08-28T05:31:18.742Z,19.00
2022-08-28T05:36:25.764Z,19.00
2022-08-28T05:41:32.675Z,19.00
2022-08-28T05:46:39.676Z,19.00
2022-08-28T05:51:45.746Z,18.90
2022-08-28T05:56:51.264Z,18.80
2022-08-28T06:02:00.939Z,18.90
2022-08-28T06:07:05.681Z,18.90
2022-08-28T06:12:13.090Z,18.90
2022-08-28T06:17:23.556Z,18.90
2022-08-28T06:22:28.071Z,19.00
2022-08-28T06:27:36.686Z,18.90
2022-08-28T06:32:41.870Z,18.80
2022-08-28T06:37:47.236Z,18.70
2022-08-28T06:42:52.953Z,18.90
2022-08-28T06:47:58.898Z,19.00
2022-08-28T06:53:04.307Z,19.00
2022-08-28T06:58:11.235Z,18.80
2022-08-28T07:03:17.686Z,18.90
2022-08-28T07:08:22.907Z,18.80
2022-08-28T07:13:33.326Z,18.80
2022-08-28T07:18:36.399Z,18.70
2022-08-28T07:23:44.758Z,18.80
2022-08-28T07:28:51.839Z,18.90
2022-08-28T07:33:58.211Z,18.80
2022-08-28T07:39:05.005Z,18.80
2022-08-28T07:44:29.939Z,19.00
2022-08-28T07:49:36.017Z,19.00
2022-08-28T07:54:41.884Z,19.00
2022-08-28T07:59:47.067Z,19.00
2022-08-28T08:04:53.210Z,18.90
2022-08-28T08:09:58.778Z,19.00
2022-08-28T08:15:04.431Z,18.90
2022-08-28T08:20:10.202Z,19.00
2022-08-28T08:25:15.099Z,19.20
2022-08-28T08:30:21.185Z,19.10
2022-08-28T08:35:27.476Z,19.20
2022-08-28T08:40:32.928Z,19.40
2022-08-28T08:45:38.686Z,19.40
2022-08-28T08:50:44.021Z,19.20
2022-08-28T08:55:52.926Z,19.30
2022-08-28T09:01:10.668Z,18.90
2022-08-28T09:06:21.874Z,19.00
2022-08-28T09:11:32.791Z,19.10
2022-08-28T09:16:41.947Z,19.10
2022-08-28T09:21:49.144Z,19.00
2022-08-28T09:26:57.909Z,19.20
2022-08-28T09:32:26.565Z,19.20
2022-08-28T09:37:32.631Z,19.10
2022-08-28T09:42:55.739Z,19.00
2022-08-28T09:48:03.587Z,18.90
2022-08-28T09:53:14.817Z,18.70
2022-08-28T09:58:21.132Z,18.90
2022-08-28T10:03:41.950Z,18.90
2022-08-28T10:09:07.758Z,18.80
2022-08-28T10:14:47.857Z,18.70
2022-08-28T10:20:00.013Z,18.60
2022-08-28T10:25:21.169Z,18.60
2022-08-28T10:30:28.186Z,18.60
2022-08-28T10:35:45.149Z,18.40
2022-08-28T10:40:53.442Z,18.10
2022-08-28T10:46:02.034Z,18.00
2022-08-28T10:51:34.757Z,18.20
2022-08-28T10:56:32.637Z,18.20
2022-08-28T11:01:43.116Z,18.30
2022-08-28T11:07:10.431Z,18.30
2022-08-28T11:12:22.439Z,18.30
2022-08-28T11:17:31.961Z,18.30
2022-08-28T11:22:48.069Z,18.30
2022-08-28T11:28:22.780Z,18.50
2022-08-28T11:33:49.767Z,18.30
2022-08-28T11:38:58.734Z,18.20
2022-08-28T11:44:15.475Z,18.20
2022-08-28T11:49:38.775Z,18.30
2022-08-28T11:54:47.973Z,18.20
2022-08-28T12:00:09.265Z,17.90
2022-08-28T12:05:20.581Z,17.80
2022-08-28T12:10:32.387Z,17.80
2022-08-28T12:15:40.843Z,17.60
2022-08-28T12:20:54.985Z,17.60
2022-08-28T12:26:07.233Z,17.60
2022-08-28T12:31:48.455Z,17.60
2022-08-28T12:36:59.312Z,17.50
2022-08-28T12:42:04.780Z,17.30
2022-08-28T12:47:12.055Z,17.30
2022-08-28T12:52:23.063Z,17.20
2022-08-28T12:57:28.614Z,17.10
2022-08-28T13:02:55.581Z,17.10
2022-08-28T13:08:07.398Z,17.10
2022-08-28T13:13:32.103Z,17.20
2022-08-28T13:18:51.723Z,17.10
2022-08-28T13:24:00.885Z,17.10
2022-08-28T13:29:10.465Z,17.30
2022-08-28T13:34:27.335Z,17.30
2022-08-28T13:39:35.053Z,17.40
2022-08-28T13:44:53.968Z,17.50
2022-08-28T13:50:00.154Z,17.20
2022-08-28T13:55:06.441Z,17.50
2022-08-28T14:00:14.428Z,17.40
2022-08-28T14:05:19.848Z,17.40
2022-08-28T14:10:25.124Z,17.50
2022-08-28T14:15:31.877Z,17.30
2022-08-28T14:20:39.842Z,17.20
2022-08-28T14:25:48.360Z,17.20
2022-08-28T14:30:54.012Z,17.20
2022-08-28T14:35:58.990Z,17.10
2022-08-28T14:41:07.563Z,17.10
2022-08-28T14:46:19.087Z,17.20
2022-08-28T14:51:26.510Z,17.20
2022-08-28T14:56:33.706Z,17.10
2022-08-28T15:01:40.825Z,17.10
2022-08-28T15:06:47.369Z,17.10
2022-08-28T15:11:53.500Z,16.90
2022-08-28T15:16:58.897Z,17.00
2022-08-28T15:22:05.322Z,16.90
2022-08-28T15:27:10.771Z,16.80
2022-08-28T15:32:15.845Z,16.80
2022-08-28T15:37:20.727Z,16.90
2022-08-28T15:42:25.953Z,16.90
2022-08-28T15:47:32.761Z,16.90
2022-08-28T15:52:39.142Z,16.90
2022-08-28T15:57:44.815Z,17.00
2022-08-28T16:02:50.622Z,17.00
2022-08-28T16:07:55.754Z,17.00
2022-08-28T16:13:02.957Z,17.00
2022-08-28T16:18:09.440Z,17.10
2022-08-28T16:23:15.339Z,17.10
2022-08-28T16:28:21.774Z,17.10
2022-08-28T16:33:27.940Z,17.10
2022-08-28T16:38:35.200Z,17.10
2022-08-28T16:43:40.984Z,17.20
2022-08-28T16:48:47.658Z,17.30
2022-08-28T16:53:55.278Z,17.20
2022-08-28T16:59:01.429Z,17.30
2022-08-28T17:04:07.026Z,17.20
2022-08-28T17:09:14.186Z,17.20
2022-08-28T17:14:19.389Z,17.20
2022-08-28T17:19:25.660Z,17.40
2022-08-28T17:24:31.261Z,17.30
2022-08-28T17:29:38.889Z,17.30
2022-08-28T17:34:44.859Z,17.40
2022-08-28T17:39:50.489Z,17.40
2022-08-28T17:44:55.966Z,17.40
2022-08-28T17:50:02.810Z,17.40
2022-08-28T17:55:08.844Z,17.60
2022-08-28T18:00:16.402Z,17.50
2022-08-28T18:05:22.197Z,17.50
2022-08-28T18:10:27.792Z,17.30
2022-08-28T18:15:34.459Z,17.30
2022-08-28T18:20:42.894Z,17.10
2022-08-28T18:25:50.982Z,17.00
2022-08-28T18:30:56.897Z,17.00
2022-08-28T18:36:06.881Z,16.90
2022-08-28T18:41:13.832Z,16.80
2022-08-28T18:46:20.787Z,16.80
2022-08-28T18:51:27.715Z,16.70
2022-08-28T18:56:33.920Z,16.70
2022-08-28T19:01:42.036Z,16.40
2022-08-28T19:06:49.103Z,16.20
2022-08-28T19:11:55.361Z,16.30
2022-08-28T19:17:01.387Z,16.10
2022-08-28T19:22:06.626Z,16.10
2022-08-28T19:27:13.687Z,16.00
2022-08-28T19:32:19.357Z,15.80
2022-08-28T19:37:25.429Z,16.10
2022-08-28T19:42:31.821Z,15.90
2022-08-28T19:47:37.124Z,15.90
2022-08-28T19:52:44.057Z,16.00
2022-08-28T19:57:49.777Z,16.00
2022-08-28T20:02:55.965Z,15.80
2022-08-28T20:08:01.314Z,15.80
2022-08-28T20:13:06.319Z,15.80
2022-08-28T20:18:13.796Z,15.70
2022-08-28T20:23:20.123Z,15.70
2022-08-28T20:28:25.062Z,15.80
2022-08-28T20:33:31.630Z,15.80
2022-08-28T20:38:39.380Z,15.80
2022-08-28T20:43:45.660Z,15.70
2022-08-28T20:48:51.552Z,15.60
2022-08-28T20:53:57.655Z,15.50
2022-08-28T20:59:02.652Z,15.50
2022-08-28T21:04:08.045Z,15.40
2022-08-28T21:09:14.647Z,15.20
2022-08-28T21:14:20.854Z,15.50
2022-08-28T21:19:26.018Z,15.60
2022-08-28T21:24:32.614Z,15.60
2022-08-28T21:29:38.550Z,15.60
2022-08-28T21:34:43.764Z,15.60
2022-08-28T21:39:51.254Z,15.70
2022-08-28T21:44:56.812Z,15.70
2022-08-28T21:50:01.825Z,15.70
2022-08-28T21:55:10.795Z,15.70
2022-08-28T22:00:22.165Z,15.70
2022-08-28T22:05:29.089Z,15.60
2022-08-28T22:10:38.595Z,15.50
2022-08-28T22:15:44.118Z,15.30
2022-08-28T22:21:06.918Z,15.20
2022-08-28T22:26:18.938Z,15.10
2022-08-28T22:31:24.308Z,15.10
2022-08-28T22:36:30.168Z,15.00
2022-08-28T22:41:37.850Z,14.90
2022-08-28T22:46:43.573Z,14.70
2022-08-28T22:51:49.300Z,14.50
2022-08-28T22:56:55.500Z,14.40
2022-08-28T23:02:01.016Z,14.40
2022-08-28T23:07:07.003Z,14.30
2022-08-28T23:12:13.544Z,14.30
2022-08-28T23:17:20.453Z,14.40
2022-08-28T23:22:26.460Z,14.40
2022-08-28T23:27:38.459Z,14.20
2022-08-28T23:32:39.749Z,14.10
2022-08-28T23:37:48.913Z,14.00
2022-08-28T23:42:55.587Z,14.10
2022-08-28T23:48:01.243Z,13.80
2022-08-28T23:53:08.547Z,13.70
2022-08-28T23:58:14.659Z,13.70
